sensor_id;sensor_type;location;lat;lon;timestamp;pressure;altitude;pressure_sealevel;temperature;humidity
55755;BME280;41674;52.290;-1.474;2024-02-16T00:01:50;99980.04;;;14.87;90.38
55755;BME280;41674;52.290;-1.474;2024-02-16T00:03:15;99982.64;;;14.77;89.14
55755;BME280;41674;52.290;-1.474;2024-02-16T00:05:43;99982.53;;;14.89;87.72
55755;BME280;41674;52.290;-1.474;2024-02-16T00:08:34;99973.79;;;14.08;89.88
55755;BME280;41674;52.290;-1.474;2024-02-16T00:10:35;99975.22;;;14.23;90.18
55755;BME280;41674;52.290;-1.474;2024-02-16T00:13:06;99980.69;;;13.12;97.35
55755;BME280;41674;52.290;-1.474;2024-02-16T00:15:36;99979.45;;;12.80;96.01
55755;BME280;41674;52.290;-1.474;2024-02-16T00:18:07;99976.45;;;13.70;93.97
55755;BME280;41674;52.290;-1.474;2024-02-16T00:20:41;99980.39;;;14.02;92.79
55755;BME280;41674;52.290;-1.474;2024-02-16T00:22:44;99983.23;;;13.02;95.62
55755;BME280;41674;52.290;-1.474;2024-02-16T00:25:20;99984.95;;;13.32;94.88
55755;BME280;41674;52.290;-1.474;2024-02-16T00:28:16;99979.80;;;12.96;97.60
55755;BME280;41674;52.290;-1.474;2024-02-16T00:32:45;99981.03;;;13.91;90.75
55755;BME280;41674;52.290;-1.474;2024-02-16T00:35:19;99992.30;;;13.51;94.00
55755;BME280;41674;52.290;-1.474;2024-02-16T00:37:54;99989.81;;;13.82;92.11
55755;BME280;41674;52.290;-1.474;2024-02-16T00:40:28;99999.12;;;13.73;92.07
55755;BME280;41674;52.290;-1.474;2024-02-16T00:42:56;100004.60;;;12.83;94.76
55755;BME280;41674;52.290;-1.474;2024-02-16T00:45:30;100011.78;;;12.07;98.48
55755;BME280;41674;52.290;-1.474;2024-02-16T00:48:01;100017.67;;;12.27;98.90
55755;BME280;41674;52.290;-1.474;2024-02-16T00:50:26;100031.50;;;11.36;100.00
55755;BME280;41674;52.290;-1.474;2024-02-16T00:53:07;100031.28;;;11.19;100.00
55755;BME280;41674;52.290;-1.474;2024-02-16T00:55:35;100024.76;;;11.56;100.00
55755;BME280;41674;52.290;-1.474;2024-02-16T01:00:17;100022.93;;;13.78;92.02
55755;BME280;41674;52.290;-1.474;2024-02-16T01:02:58;100023.69;;;13.62;89.76
55755;BME280;41674;52.290;-1.474;2024-02-16T01:05:27;100025.94;;;14.29;88.17
55755;BME280;41674;52.290;-1.474;2024-02-16T01:08:01;100029.80;;;13.69;89.16
55755;BME280;41674;52.290;-1.474;2024-02-16T01:10:32;100041.23;;;13.14;90.88
55755;BME280;41674;52.290;-1.474;2024-02-16T01:12:57;100036.78;;;14.18;88.32
55755;BME280;41674;52.290;-1.474;2024-02-16T01:15:42;100034.98;;;13.38;93.03
55755;BME280;41674;52.290;-1.474;2024-02-16T01:18:16;100029.75;;;12.72;93.86
55755;BME280;41674;52.290;-1.474;2024-02-16T01:20:43;100026.03;;;12.41;94.75
55755;BME280;41674;52.290;-1.474;2024-02-16T01:23:10;100032.29;;;12.14;97.13
55755;BME280;41674;52.290;-1.474;2024-02-16T01:25:38;100034.85;;;13.82;90.43
55755;BME280;41674;52.290;-1.474;2024-02-16T01:28:07;100042.52;;;13.29;91.17
55755;BME280;41674;52.290;-1.474;2024-02-16T01:30:42;100039.98;;;12.70;92.35
55755;BME280;41674;52.290;-1.474;2024-02-16T01:32:58;100032.74;;;13.57;87.77
55755;BME280;41674;52.290;-1.474;2024-02-16T01:35:42;100024.15;;;14.45;83.98
55755;BME280;41674;52.290;-1.474;2024-02-16T01:38:11;100024.60;;;14.34;82.20
55755;BME280;41674;52.290;-1.474;2024-02-16T01:40:48;100026.36;;;15.08;79.56
55755;BME280;41674;52.290;-1.474;2024-02-16T01:43:10;100024.41;;;15.48;77.74
55755;BME280;41674;52.290;-1.474;2024-02-16T01:45:43;100024.69;;;16.25;75.25
55755;BME280;41674;52.290;-1.474;2024-02-16T01:48:03;100023.96;;;16.29;74.43
55755;BME280;41674;52.290;-1.474;2024-02-16T01:50:36;100022.17;;;16.46;73.55
55755;BME280;41674;52.290;-1.474;2024-02-16T01:53:16;100019.82;;;16.90;72.62
55755;BME280;41674;52.290;-1.474;2024-02-16T01:55:43;100027.01;;;15.88;73.95
55755;BME280;41674;52.290;-1.474;2024-02-16T01:58:10;100030.38;;;16.33;71.88
55755;BME280;41674;52.290;-1.474;2024-02-16T02:00:43;100025.38;;;16.62;70.76
55755;BME280;41674;52.290;-1.474;2024-02-16T02:03:14;100026.89;;;16.39;71.21
55755;BME280;41674;52.290;-1.474;2024-02-16T02:05:43;100035.53;;;16.59;70.62
55755;BME280;41674;52.290;-1.474;2024-02-16T02:08:16;100042.91;;;16.13;72.07
55755;BME280;41674;52.290;-1.474;2024-02-16T02:10:42;100040.21;;;16.90;69.78
55755;BME280;41674;52.290;-1.474;2024-02-16T02:13:06;100039.76;;;16.83;69.32
55755;BME280;41674;52.290;-1.474;2024-02-16T02:15:19;100040.79;;;17.08;70.81
55755;BME280;41674;52.290;-1.474;2024-02-16T02:17:49;100035.39;;;16.41;73.59
55755;BME280;41674;52.290;-1.474;2024-02-16T02:20:18;100026.47;;;15.39;79.05
55755;BME280;41674;52.290;-1.474;2024-02-16T02:22:48;100018.27;;;11.62;96.88
55755;BME280;41674;52.290;-1.474;2024-02-16T02:25:18;100010.25;;;12.09;99.74
55755;BME280;41674;52.290;-1.474;2024-02-16T02:27:48;100021.97;;;13.41;90.27
55755;BME280;41674;52.290;-1.474;2024-02-16T02:30:16;100044.52;;;13.87;89.03
55755;BME280;41674;52.290;-1.474;2024-02-16T02:32:46;100064.47;;;13.09;91.37
55755;BME280;41674;52.290;-1.474;2024-02-16T02:35:17;100087.59;;;12.92;94.15
55755;BME280;41674;52.290;-1.474;2024-02-16T02:37:45;100095.11;;;13.04;93.33
55755;BME280;41674;52.290;-1.474;2024-02-16T02:40:15;100099.58;;;11.91;100.00
55755;BME280;41674;52.290;-1.474;2024-02-16T02:42:50;100103.28;;;11.48;100.00
55755;BME280;41674;52.290;-1.474;2024-02-16T02:45:14;100111.84;;;11.06;100.00
55755;BME280;41674;52.290;-1.474;2024-02-16T02:47:44;100116.06;;;10.54;100.00
55755;BME280;41674;52.290;-1.474;2024-02-16T02:50:14;100116.60;;;10.48;100.00
55755;BME280;41674;52.290;-1.474;2024-02-16T02:52:44;100108.31;;;11.05;100.00
55755;BME280;41674;52.290;-1.474;2024-02-16T02:55:17;100101.32;;;11.46;100.00
55755;BME280;41674;52.290;-1.474;2024-02-16T02:57:43;100104.37;;;12.43;100.00
55755;BME280;41674;52.290;-1.474;2024-02-16T03:00:12;100112.57;;;11.76;100.00
55755;BME280;41674;52.290;-1.474;2024-02-16T03:02:48;100127.11;;;11.87;100.00
55755;BME280;41674;52.290;-1.474;2024-02-16T03:05:11;100134.61;;;11.59;100.00
55755;BME280;41674;52.290;-1.474;2024-02-16T03:07:42;100137.64;;;12.28;100.00
55755;BME280;41674;52.290;-1.474;2024-02-16T03:10:10;100143.21;;;11.92;100.00
55755;BME280;41674;52.290;-1.474;2024-02-16T03:12:39;100151.51;;;11.06;100.00
55755;BME280;41674;52.290;-1.474;2024-02-16T03:15:12;100152.20;;;11.00;100.00
55755;BME280;41674;52.290;-1.474;2024-02-16T03:17:44;100151.96;;;11.12;100.00
55755;BME280;41674;52.290;-1.474;2024-02-16T03:20:10;100153.93;;;11.74;100.00
55755;BME280;41674;52.290;-1.474;2024-02-16T03:22:40;100157.38;;;11.38;100.00
55755;BME280;41674;52.290;-1.474;2024-02-16T03:25:07;100160.19;;;10.63;100.00
55755;BME280;41674;52.290;-1.474;2024-02-16T03:27:40;100161.90;;;11.07;100.00
55755;BME280;41674;52.290;-1.474;2024-02-16T03:30:08;100158.78;;;10.33;100.00
55755;BME280;41674;52.290;-1.474;2024-02-16T03:32:36;100160.61;;;11.15;100.00
55755;BME280;41674;52.290;-1.474;2024-02-16T03:35:07;100171.73;;;11.37;100.00
55755;BME280;41674;52.290;-1.474;2024-02-16T03:37:34;100166.34;;;10.48;100.00
55755;BME280;41674;52.290;-1.474;2024-02-16T03:40:06;100156.30;;;10.38;100.00
55755;BME280;41674;52.290;-1.474;2024-02-16T03:42:34;100148.79;;;11.91;100.00
55755;BME280;41674;52.290;-1.474;2024-02-16T03:45:05;100144.34;;;11.81;100.00
55755;BME280;41674;52.290;-1.474;2024-02-16T03:47:35;100146.12;;;11.97;100.00
55755;BME280;41674;52.290;-1.474;2024-02-16T03:50:04;100140.32;;;12.35;97.32
55755;BME280;41674;52.290;-1.474;2024-02-16T03:52:32;100131.57;;;12.58;95.74
55755;BME280;41674;52.290;-1.474;2024-02-16T03:55:02;100134.24;;;12.61;92.71
55755;BME280;41674;52.290;-1.474;2024-02-16T03:57:32;100131.81;;;13.75;89.74
55755;BME280;41674;52.290;-1.474;2024-02-16T04:00:06;100141.77;;;13.02;90.12
55755;BME280;41674;52.290;-1.474;2024-02-16T04:02:35;100148.96;;;13.20;89.85
55755;BME280;41674;52.290;-1.474;2024-02-16T04:05:00;100161.01;;;12.60;92.96
55755;BME280;41674;52.290;-1.474;2024-02-16T04:07:30;100169.47;;;12.12;96.59
55755;BME280;41674;52.290;-1.474;2024-02-16T04:09:59;100180.55;;;11.97;97.24
55755;BME280;41674;52.290;-1.474;2024-02-16T04:12:34;100179.77;;;11.18;100.00
55755;BME280;41674;52.290;-1.474;2024-02-16T04:15:01;100181.56;;;10.91;100.00
55755;BME280;41674;52.290;-1.474;2024-02-16T04:17:28;100180.82;;;11.58;100.00
55755;BME280;41674;52.290;-1.474;2024-02-16T04:19:57;100180.92;;;11.10;100.00
55755;BME280;41674;52.290;-1.474;2024-02-16T04:22:29;100190.90;;;11.74;99.94
55755;BME280;41674;52.290;-1.474;2024-02-16T04:24:57;100189.61;;;11.21;100.00
55755;BME280;41674;52.290;-1.474;2024-02-16T04:27:27;100200.55;;;11.11;100.00
55755;BME280;41674;52.290;-1.474;2024-02-16T04:29:57;100206.43;;;11.11;100.00
55755;BME280;41674;52.290;-1.474;2024-02-16T04:32:31;100209.96;;;10.66;100.00
55755;BME280;41674;52.290;-1.474;2024-02-16T04:34:55;100214.06;;;10.42;100.00
55755;BME280;41674;52.290;-1.474;2024-02-16T04:37:25;100213.96;;;10.49;100.00
55755;BME280;41674;52.290;-1.474;2024-02-16T04:39:59;100215.77;;;10.37;100.00
55755;BME280;41674;52.290;-1.474;2024-02-16T04:42:24;100219.17;;;11.26;100.00
55755;BME280;41674;52.290;-1.474;2024-02-16T04:44:53;100218.61;;;10.47;100.00
55755;BME280;41674;52.290;-1.474;2024-02-16T04:47:25;100213.50;;;10.71;100.00
55755;BME280;41674;52.290;-1.474;2024-02-16T04:49:53;100225.30;;;11.29;100.00
55755;BME280;41674;52.290;-1.474;2024-02-16T04:52:27;100231.62;;;10.52;100.00
55755;BME280;41674;52.290;-1.474;2024-02-16T04:54:51;100240.91;;;9.91;100.00
55755;BME280;41674;52.290;-1.474;2024-02-16T04:57:32;100240.53;;;10.99;100.00
55755;BME280;41674;52.290;-1.474;2024-02-16T04:59:52;100242.11;;;10.85;99.91
55755;BME280;41674;52.290;-1.474;2024-02-16T05:02:22;100249.79;;;11.29;96.67
55755;BME280;41674;52.290;-1.474;2024-02-16T05:04:52;100254.89;;;9.58;100.00
55755;BME280;41674;52.290;-1.474;2024-02-16T05:07:19;100258.09;;;10.86;99.70
55755;BME280;41674;52.290;-1.474;2024-02-16T05:09:50;100267.45;;;9.98;100.00
55755;BME280;41674;52.290;-1.474;2024-02-16T05:12:19;100273.24;;;11.28;97.26
55755;BME280;41674;52.290;-1.474;2024-02-16T05:14:49;100275.91;;;10.22;100.00
55755;BME280;41674;52.290;-1.474;2024-02-16T05:17:19;100279.79;;;11.17;98.02
55755;BME280;41674;52.290;-1.474;2024-02-16T05:19:49;100284.40;;;10.37;100.00
55755;BME280;41674;52.290;-1.474;2024-02-16T05:22:19;100284.75;;;11.10;98.43
55755;BME280;41674;52.290;-1.474;2024-02-16T05:24:47;100291.62;;;11.07;96.16
55755;BME280;41674;52.290;-1.474;2024-02-16T05:27:23;100298.92;;;10.23;98.81
55755;BME280;41674;52.290;-1.474;2024-02-16T05:29:48;100301.03;;;10.49;99.26
55755;BME280;41674;52.290;-1.474;2024-02-16T05:32:15;100300.09;;;11.45;96.51
55755;BME280;41674;52.290;-1.474;2024-02-16T05:34:46;100298.41;;;10.82;99.18
55755;BME280;41674;52.290;-1.474;2024-02-16T05:37:17;100298.18;;;11.17;96.24
55755;BME280;41674;52.290;-1.474;2024-02-16T05:39:49;100297.67;;;10.84;99.35
55755;BME280;41674;52.290;-1.474;2024-02-16T05:42:14;100304.40;;;10.97;97.73
55755;BME280;41674;52.290;-1.474;2024-02-16T05:44:44;100308.30;;;11.00;96.73
55755;BME280;41674;52.290;-1.474;2024-02-16T05:47:14;100316.60;;;10.48;99.92
55755;BME280;41674;52.290;-1.474;2024-02-16T05:49:49;100323.74;;;10.15;100.00
55755;BME280;41674;52.290;-1.474;2024-02-16T05:52:12;100335.27;;;9.27;100.00
55755;BME280;41674;52.290;-1.474;2024-02-16T05:54:43;100338.64;;;9.63;100.00
55755;BME280;41674;52.290;-1.474;2024-02-16T05:57:12;100341.99;;;9.13;100.00
55755;BME280;41674;52.290;-1.474;2024-02-16T05:59:41;100346.10;;;9.33;100.00
55755;BME280;41674;52.290;-1.474;2024-02-16T06:02:11;100344.41;;;9.72;100.00
55755;BME280;41674;52.290;-1.474;2024-02-16T06:04:42;100350.56;;;9.32;100.00
55755;BME280;41674;52.290;-1.474;2024-02-16T06:07:15;100353.04;;;10.09;100.00
55755;BME280;41674;52.290;-1.474;2024-02-16T06:09:39;100352.79;;;9.56;100.00
55755;BME280;41674;52.290;-1.474;2024-02-16T06:12:09;100355.52;;;9.99;100.00
55755;BME280;41674;52.290;-1.474;2024-02-16T06:14:39;100355.55;;;10.43;100.00
55755;BME280;41674;52.290;-1.474;2024-02-16T06:17:08;100358.55;;;9.55;100.00
55755;BME280;41674;52.290;-1.474;2024-02-16T06:19:44;100363.02;;;9.20;100.00
55755;BME280;41674;52.290;-1.474;2024-02-16T06:22:08;100373.34;;;8.57;100.00
55755;BME280;41674;52.290;-1.474;2024-02-16T06:24:37;100367.73;;;8.95;100.00
55755;BME280;41674;52.290;-1.474;2024-02-16T06:27:06;100375.30;;;9.13;100.00
55755;BME280;41674;52.290;-1.474;2024-02-16T06:29:37;100379.52;;;10.43;100.00
55755;BME280;41674;52.290;-1.474;2024-02-16T06:32:07;100380.49;;;9.41;100.00
55755;BME280;41674;52.290;-1.474;2024-02-16T06:34:36;100387.83;;;9.79;100.00
55755;BME280;41674;52.290;-1.474;2024-02-16T06:37:09;100394.33;;;8.85;100.00
55755;BME280;41674;52.290;-1.474;2024-02-16T06:39:35;100398.21;;;9.22;100.00
55755;BME280;41674;52.290;-1.474;2024-02-16T06:42:06;100411.46;;;8.92;100.00
55755;BME280;41674;52.290;-1.474;2024-02-16T06:44:35;100410.19;;;9.19;100.00
55755;BME280;41674;52.290;-1.474;2024-02-16T06:47:07;100411.71;;;9.03;100.00
55755;BME280;41674;52.290;-1.474;2024-02-16T06:50:06;100416.08;;;9.39;100.00
55755;BME280;41674;52.290;-1.474;2024-02-16T06:52:30;100419.57;;;9.65;99.44
55755;BME280;41674;52.290;-1.474;2024-02-16T06:55:04;100424.71;;;9.46;99.98
55755;BME280;41674;52.290;-1.474;2024-02-16T06:57:38;100429.05;;;8.61;100.00
55755;BME280;41674;52.290;-1.474;2024-02-16T06:59:57;100437.81;;;8.50;100.00
55755;BME280;41674;52.290;-1.474;2024-02-16T07:05:11;100439.86;;;8.83;100.00
55755;BME280;41674;52.290;-1.474;2024-02-16T07:07:23;100444.59;;;9.31;97.04
55755;BME280;41674;52.290;-1.474;2024-02-16T07:10:13;100452.36;;;9.32;98.10
55755;BME280;41674;52.290;-1.474;2024-02-16T07:12:33;100457.40;;;9.05;97.80
55755;BME280;41674;52.290;-1.474;2024-02-16T07:15:07;100457.62;;;9.79;93.57
55755;BME280;41674;52.290;-1.474;2024-02-16T07:17:41;100466.04;;;9.85;95.09
55755;BME280;41674;52.290;-1.474;2024-02-16T07:20:13;100472.81;;;9.84;94.13
55755;BME280;41674;52.290;-1.474;2024-02-16T07:22:46;100485.34;;;9.76;94.36
55755;BME280;41674;52.290;-1.474;2024-02-16T07:27:55;100498.68;;;10.28;93.15
55755;BME280;41674;52.290;-1.474;2024-02-16T07:30:16;100508.03;;;8.74;97.72
55755;BME280;41674;52.290;-1.474;2024-02-16T07:32:47;100514.44;;;8.46;99.70
55755;BME280;41674;52.290;-1.474;2024-02-16T07:35:14;100512.87;;;9.06;95.72
55755;BME280;41674;52.290;-1.474;2024-02-16T07:37:42;100522.37;;;9.14;96.20
55755;BME280;41674;52.290;-1.474;2024-02-16T07:40:13;100532.64;;;8.43;100.00
55755;BME280;41674;52.290;-1.474;2024-02-16T07:42:50;100536.24;;;8.98;98.97
55755;BME280;41674;52.290;-1.474;2024-02-16T07:45:26;100549.66;;;8.04;100.00
55755;BME280;41674;52.290;-1.474;2024-02-16T07:47:43;100551.46;;;9.00;97.61
55755;BME280;41674;52.290;-1.474;2024-02-16T07:50:11;100555.50;;;9.06;96.94
55755;BME280;41674;52.290;-1.474;2024-02-16T07:55:16;100559.20;;;10.27;92.07
55755;BME280;41674;52.290;-1.474;2024-02-16T07:57:57;100570.73;;;7.92;97.62
55755;BME280;41674;52.290;-1.474;2024-02-16T08:00:24;100572.12;;;9.18;94.74
55755;BME280;41674;52.290;-1.474;2024-02-16T08:02:45;100574.04;;;8.88;95.65
55755;BME280;41674;52.290;-1.474;2024-02-16T08:05:10;100580.50;;;7.97;98.79
55755;BME280;41674;52.290;-1.474;2024-02-16T08:07:56;100579.27;;;7.78;100.00
55755;BME280;41674;52.290;-1.474;2024-02-16T08:10:14;100585.44;;;8.10;99.07
55755;BME280;41674;52.290;-1.474;2024-02-16T08:12:41;100588.11;;;8.27;98.97
55755;BME280;41674;52.290;-1.474;2024-02-16T08:15:16;100593.80;;;8.12;99.61
55755;BME280;41674;52.290;-1.474;2024-02-16T08:17:43;100597.04;;;8.69;98.63
55755;BME280;41674;52.290;-1.474;2024-02-16T08:20:33;100597.85;;;8.33;99.22
55755;BME280;41674;52.290;-1.474;2024-02-16T08:25:13;100607.12;;;8.19;97.09
55755;BME280;41674;52.290;-1.474;2024-02-16T08:28:03;100608.01;;;8.04;98.04
55755;BME280;41674;52.290;-1.474;2024-02-16T08:30:17;100613.91;;;8.19;97.84
55755;BME280;41674;52.290;-1.474;2024-02-16T08:32:46;100624.23;;;8.20;97.57
55755;BME280;41674;52.290;-1.474;2024-02-16T08:35:15;100630.62;;;7.61;98.41
55755;BME280;41674;52.290;-1.474;2024-02-16T08:37:55;100631.61;;;8.59;94.75
55755;BME280;41674;52.290;-1.474;2024-02-16T08:40:32;100636.21;;;7.68;98.92
55755;BME280;41674;52.290;-1.474;2024-02-16T08:42:59;100636.08;;;7.77;99.97
55755;BME280;41674;52.290;-1.474;2024-02-16T08:45:20;100643.24;;;7.65;99.60
55755;BME280;41674;52.290;-1.474;2024-02-16T08:47:56;100643.35;;;7.71;99.14
55755;BME280;41674;52.290;-1.474;2024-02-16T08:50:26;100658.10;;;7.12;100.00
55755;BME280;41674;52.290;-1.474;2024-02-16T08:53:10;100660.74;;;7.66;100.00
55755;BME280;41674;52.290;-1.474;2024-02-16T08:55:35;100660.41;;;7.67;99.56
55755;BME280;41674;52.290;-1.474;2024-02-16T08:58:24;100664.20;;;7.27;100.00
55755;BME280;41674;52.290;-1.474;2024-02-16T09:00:38;100663.44;;;7.19;100.00
55755;BME280;41674;52.290;-1.474;2024-02-16T09:02:56;100675.62;;;7.49;100.00
55755;BME280;41674;52.290;-1.474;2024-02-16T09:05:35;100676.40;;;8.02;100.00
55755;BME280;41674;52.290;-1.474;2024-02-16T09:10:45;100683.50;;;8.25;96.46
55755;BME280;41674;52.290;-1.474;2024-02-16T09:12:55;100687.06;;;8.44;94.92
55755;BME280;41674;52.290;-1.474;2024-02-16T09:15:41;100686.74;;;8.77;91.06
55755;BME280;41674;52.290;-1.474;2024-02-16T09:18:15;100692.29;;;7.93;95.60
55755;BME280;41674;52.290;-1.474;2024-02-16T09:20:43;100688.81;;;8.18;97.00
55755;BME280;41674;52.290;-1.474;2024-02-16T09:23:20;100696.25;;;7.80;97.73
55755;BME280;41674;52.290;-1.474;2024-02-16T09:25:40;100703.26;;;8.05;95.29
55755;BME280;41674;52.290;-1.474;2024-02-16T09:28:22;100708.34;;;8.39;95.31
55755;BME280;41674;52.290;-1.474;2024-02-16T09:30:48;100712.52;;;8.26;94.23
55755;BME280;41674;52.290;-1.474;2024-02-16T09:33:12;100714.64;;;8.14;94.42
55755;BME280;41674;52.290;-1.474;2024-02-16T09:35:52;100714.69;;;8.87;93.39
55755;BME280;41674;52.290;-1.474;2024-02-16T09:38:29;100717.02;;;8.80;92.36
55755;BME280;41674;52.290;-1.474;2024-02-16T09:40:53;100726.30;;;9.11;89.71
55755;BME280;41674;52.290;-1.474;2024-02-16T09:51:15;100741.37;;;8.39;96.10
55755;BME280;41674;52.290;-1.474;2024-02-16T09:53:53;100750.77;;;8.53;97.05
55755;BME280;41674;52.290;-1.474;2024-02-16T09:56:27;100753.13;;;8.73;95.52
55755;BME280;41674;52.290;-1.474;2024-02-16T09:58:46;100764.43;;;8.44;96.89
55755;BME280;41674;52.290;-1.474;2024-02-16T10:01:33;100769.34;;;8.24;99.10
55755;BME280;41674;52.290;-1.474;2024-02-16T10:04:18;100769.08;;;8.06;100.00
55755;BME280;41674;52.290;-1.474;2024-02-16T11:05:18;100861.51;;;9.34;94.30
55755;BME280;41674;52.290;-1.474;2024-02-16T11:11:03;100873.16;;;9.42;94.29
55755;BME280;41674;52.290;-1.474;2024-02-16T11:21:17;100885.99;;;9.51;93.30
55755;BME280;41674;52.290;-1.474;2024-02-16T11:29:35;100891.88;;;10.31;91.57
55755;BME280;41674;52.290;-1.474;2024-02-16T11:32:02;100890.35;;;10.69;88.09
55755;BME280;41674;52.290;-1.474;2024-02-16T11:34:05;100891.57;;;11.26;84.12
55755;BME280;41674;52.290;-1.474;2024-02-16T11:36:24;100897.12;;;11.17;84.60
55755;BME280;41674;52.290;-1.474;2024-02-16T11:39:11;100898.28;;;11.09;84.27
55755;BME280;41674;52.290;-1.474;2024-02-16T11:41:58;100902.48;;;10.95;85.33
55755;BME280;41674;52.290;-1.474;2024-02-16T11:43:44;100909.26;;;10.45;86.36
55755;BME280;41674;52.290;-1.474;2024-02-16T11:46:25;100904.64;;;9.48;91.58
55755;BME280;41674;52.290;-1.474;2024-02-16T11:48:45;100903.26;;;10.11;92.48
55755;BME280;41674;52.290;-1.474;2024-02-16T11:51:33;100907.50;;;9.47;92.07
55755;BME280;41674;52.290;-1.474;2024-02-16T12:01:53;100908.45;;;9.21;92.88
55755;BME280;41674;52.290;-1.474;2024-02-16T12:14:30;100919.78;;;11.01;85.75
